sensor_id;sensor_type;location;lat;lon;timestamp;temperature;humidity
16321;DHT22;8269;50.990;4.494;2023-04-29T00:00:04;10.70;99.90
16321;DHT22;8269;50.990;4.494;2023-04-29T00:02:35;10.60;99.90
16321;DHT22;8269;50.990;4.494;2023-04-29T00:05:01;10.70;99.90
16321;DHT22;8269;50.990;4.494;2023-04-29T00:07:29;10.60;99.90
16321;DHT22;8269;50.990;4.494;2023-04-29T00:09:57;10.60;99.90
16321;DHT22;8269;50.990;4.494;2023-04-29T00:12:23;10.60;99.90
16321;DHT22;8269;50.990;4.494;2023-04-29T00:14:48;10.50;99.90
16321;DHT22;8269;50.990;4.494;2023-04-29T00:17:14;10.50;99.90
16321;DHT22;8269;50.990;4.494;2023-04-29T00:19:40;10.50;99.90
16321;DHT22;8269;50.990;4.494;2023-04-29T00:22:07;10.50;99.90
16321;DHT22;8269;50.990;4.494;2023-04-29T00:24:33;10.50;99.90
16321;DHT22;8269;50.990;4.494;2023-04-29T00:26:59;10.50;99.90
16321;DHT22;8269;50.990;4.494;2023-04-29T00:29:26;10.50;99.90
16321;DHT22;8269;50.990;4.494;2023-04-29T00:31:52;10.50;99.90
16321;DHT22;8269;50.990;4.494;2023-04-29T00:34:18;10.50;99.90
16321;DHT22;8269;50.990;4.494;2023-04-29T00:36:44;10.50;99.90
16321;DHT22;8269;50.990;4.494;2023-04-29T00:39:10;10.40;99.90
16321;DHT22;8269;50.990;4.494;2023-04-29T00:41:35;10.30;99.90
16321;DHT22;8269;50.990;4.494;2023-04-29T00:44:02;10.30;99.90
16321;DHT22;8269;50.990;4.494;2023-04-29T00:46:27;10.30;99.90
16321;DHT22;8269;50.990;4.494;2023-04-29T00:48:53;10.30;99.90
16321;DHT22;8269;50.990;4.494;2023-04-29T00:51:19;10.30;99.90
16321;DHT22;8269;50.990;4.494;2023-04-29T00:53:44;10.30;99.90
16321;DHT22;8269;50.990;4.494;2023-04-29T00:56:10;10.30;99.90
16321;DHT22;8269;50.990;4.494;2023-04-29T00:58:36;10.30;99.90
16321;DHT22;8269;50.990;4.494;2023-04-29T01:01:03;10.30;99.90
16321;DHT22;8269;50.990;4.494;2023-04-29T01:03:29;10.30;99.90
16321;DHT22;8269;50.990;4.494;2023-04-29T01:08:43;10.20;99.90
16321;DHT22;8269;50.990;4.494;2023-04-29T01:11:15;10.20;99.90
16321;DHT22;8269;50.990;4.494;2023-04-29T01:13:50;10.20;99.90
16321;DHT22;8269;50.990;4.494;2023-04-29T01:16:36;10.10;99.90
16321;DHT22;8269;50.990;4.494;2023-04-29T01:19:11;10.20;99.90
16321;DHT22;8269;50.990;4.494;2023-04-29T01:21:47;10.10;99.90
16321;DHT22;8269;50.990;4.494;2023-04-29T01:24:14;10.10;99.90
16321;DHT22;8269;50.990;4.494;2023-04-29T01:26:52;10.10;99.90
16321;DHT22;8269;50.990;4.494;2023-04-29T01:29:52;10.10;99.90
16321;DHT22;8269;50.990;4.494;2023-04-29T01:35:38;10.00;99.90
16321;DHT22;8269;50.990;4.494;2023-04-29T01:40:49;9.90;99.90
16321;DHT22;8269;50.990;4.494;2023-04-29T01:43:22;9.90;99.90
16321;DHT22;8269;50.990;4.494;2023-04-29T01:45:49;9.90;99.90
16321;DHT22;8269;50.990;4.494;2023-04-29T01:48:17;9.90;99.90
16321;DHT22;8269;50.990;4.494;2023-04-29T01:50:43;9.90;99.90
16321;DHT22;8269;50.990;4.494;2023-04-29T01:53:09;9.90;99.90
16321;DHT22;8269;50.990;4.494;2023-04-29T01:55:34;9.90;99.90
16321;DHT22;8269;50.990;4.494;2023-04-29T01:58:00;9.90;99.90
16321;DHT22;8269;50.990;4.494;2023-04-29T02:00:25;9.90;99.90
16321;DHT22;8269;50.990;4.494;2023-04-29T02:02:51;9.80;99.90
16321;DHT22;8269;50.990;4.494;2023-04-29T02:05:17;9.70;99.90
16321;DHT22;8269;50.990;4.494;2023-04-29T02:07:42;9.70;99.90
16321;DHT22;8269;50.990;4.494;2023-04-29T02:10:09;9.70;99.90
16321;DHT22;8269;50.990;4.494;2023-04-29T02:12:35;9.80;99.90
16321;DHT22;8269;50.990;4.494;2023-04-29T02:15:01;9.70;99.90
16321;DHT22;8269;50.990;4.494;2023-04-29T02:17:26;9.60;99.90
16321;DHT22;8269;50.990;4.494;2023-04-29T02:19:52;9.70;99.90
16321;DHT22;8269;50.990;4.494;2023-04-29T02:22:20;9.70;99.90
16321;DHT22;8269;50.990;4.494;2023-04-29T02:24:45;9.70;99.90
16321;DHT22;8269;50.990;4.494;2023-04-29T02:27:11;9.80;99.90
16321;DHT22;8269;50.990;4.494;2023-04-29T02:29:36;9.80;99.90
16321;DHT22;8269;50.990;4.494;2023-04-29T02:32:02;9.80;99.90
16321;DHT22;8269;50.990;4.494;2023-04-29T02:34:28;9.70;99.90
16321;DHT22;8269;50.990;4.494;2023-04-29T02:36:55;9.70;99.90
16321;DHT22;8269;50.990;4.494;2023-04-29T02:39:21;9.70;99.90
16321;DHT22;8269;50.990;4.494;2023-04-29T02:41:46;9.70;99.90
16321;DHT22;8269;50.990;4.494;2023-04-29T02:44:12;9.70;99.90
16321;DHT22;8269;50.990;4.494;2023-04-29T02:46:38;9.80;99.90
16321;DHT22;8269;50.990;4.494;2023-04-29T02:49:05;9.80;99.90
16321;DHT22;8269;50.990;4.494;2023-04-29T02:51:31;9.70;99.90
16321;DHT22;8269;50.990;4.494;2023-04-29T02:53:57;9.70;99.90
16321;DHT22;8269;50.990;4.494;2023-04-29T02:56:23;9.70;99.90
16321;DHT22;8269;50.990;4.494;2023-04-29T02:58:49;9.70;99.90
16321;DHT22;8269;50.990;4.494;2023-04-29T03:01:14;9.70;99.90
16321;DHT22;8269;50.990;4.494;2023-04-29T03:03:40;9.70;99.90
16321;DHT22;8269;50.990;4.494;2023-04-29T03:06:05;9.70;99.90
16321;DHT22;8269;50.990;4.494;2023-04-29T03:08:31;9.60;99.90
16321;DHT22;8269;50.990;4.494;2023-04-29T03:10:57;9.60;99.90
16321;DHT22;8269;50.990;4.494;2023-04-29T03:13:23;9.60;99.90
16321;DHT22;8269;50.990;4.494;2023-04-29T03:15:48;9.60;99.90
16321;DHT22;8269;50.990;4.494;2023-04-29T03:18:14;9.60;99.90
16321;DHT22;8269;50.990;4.494;2023-04-29T03:20:40;9.60;99.90
16321;DHT22;8269;50.990;4.494;2023-04-29T03:23:05;9.60;99.90
16321;DHT22;8269;50.990;4.494;2023-04-29T03:25:32;9.60;99.90
16321;DHT22;8269;50.990;4.494;2023-04-29T03:27:58;9.60;99.90
16321;DHT22;8269;50.990;4.494;2023-04-29T03:30:23;9.70;99.90
16321;DHT22;8269;50.990;4.494;2023-04-29T03:32:49;9.70;99.90
16321;DHT22;8269;50.990;4.494;2023-04-29T03:35:15;9.60;99.90
16321;DHT22;8269;50.990;4.494;2023-04-29T03:37:41;9.60;99.90
16321;DHT22;8269;50.990;4.494;2023-04-29T03:40:09;9.60;99.90
16321;DHT22;8269;50.990;4.494;2023-04-29T03:42:35;9.60;99.90
16321;DHT22;8269;50.990;4.494;2023-04-29T03:45:01;9.60;99.90
16321;DHT22;8269;50.990;4.494;2023-04-29T03:47:26;9.60;99.90
16321;DHT22;8269;50.990;4.494;2023-04-29T03:49:52;9.60;99.90
16321;DHT22;8269;50.990;4.494;2023-04-29T03:52:17;9.70;99.90
16321;DHT22;8269;50.990;4.494;2023-04-29T03:54:43;9.70;99.90
16321;DHT22;8269;50.990;4.494;2023-04-29T03:57:09;9.70;99.90
16321;DHT22;8269;50.990;4.494;2023-04-29T03:59:35;9.60;99.90
16321;DHT22;8269;50.990;4.494;2023-04-29T04:02:00;9.60;99.90
16321;DHT22;8269;50.990;4.494;2023-04-29T04:04:26;9.60;99.90
16321;DHT22;8269;50.990;4.494;2023-04-29T04:06:52;9.60;99.90
16321;DHT22;8269;50.990;4.494;2023-04-29T04:09:17;9.60;99.90
16321;DHT22;8269;50.990;4.494;2023-04-29T04:11:43;9.60;99.90
16321;DHT22;8269;50.990;4.494;2023-04-29T04:14:10;9.50;99.90
16321;DHT22;8269;50.990;4.494;2023-04-29T04:16:35;9.50;99.90
16321;DHT22;8269;50.990;4.494;2023-04-29T04:19:01;9.50;99.90
16321;DHT22;8269;50.990;4.494;2023-04-29T04:21:27;9.50;99.90
16321;DHT22;8269;50.990;4.494;2023-04-29T04:23:54;9.50;99.90
16321;DHT22;8269;50.990;4.494;2023-04-29T04:26:20;9.50;99.90
16321;DHT22;8269;50.990;4.494;2023-04-29T04:28:47;9.50;99.90
16321;DHT22;8269;50.990;4.494;2023-04-29T04:31:13;9.40;99.90
16321;DHT22;8269;50.990;4.494;2023-04-29T04:33:41;9.40;99.90
16321;DHT22;8269;50.990;4.494;2023-04-29T04:36:07;9.40;99.90
16321;DHT22;8269;50.990;4.494;2023-04-29T04:38:33;9.40;99.90
16321;DHT22;8269;50.990;4.494;2023-04-29T04:40:58;9.40;99.90
16321;DHT22;8269;50.990;4.494;2023-04-29T04:43:24;9.40;99.90
16321;DHT22;8269;50.990;4.494;2023-04-29T04:45:50;9.40;99.90
16321;DHT22;8269;50.990;4.494;2023-04-29T04:48:16;9.50;99.90
16321;DHT22;8269;50.990;4.494;2023-04-29T04:50:42;9.40;99.90
16321;DHT22;8269;50.990;4.494;2023-04-29T04:53:07;9.50;99.90
16321;DHT22;8269;50.990;4.494;2023-04-29T04:55:33;9.50;99.90
16321;DHT22;8269;50.990;4.494;2023-04-29T04:57:59;9.40;99.90
16321;DHT22;8269;50.990;4.494;2023-04-29T05:00:24;9.40;99.90
16321;DHT22;8269;50.990;4.494;2023-04-29T05:02:50;9.40;99.90
16321;DHT22;8269;50.990;4.494;2023-04-29T05:05:16;9.50;99.90
16321;DHT22;8269;50.990;4.494;2023-04-29T05:07:41;9.40;99.90
16321;DHT22;8269;50.990;4.494;2023-04-29T05:10:08;9.50;99.90
16321;DHT22;8269;50.990;4.494;2023-04-29T05:12:35;9.50;99.90
16321;DHT22;8269;50.990;4.494;2023-04-29T05:15:01;9.50;99.90
16321;DHT22;8269;50.990;4.494;2023-04-29T05:17:27;9.50;99.90
16321;DHT22;8269;50.990;4.494;2023-04-29T05:19:52;9.50;99.90
16321;DHT22;8269;50.990;4.494;2023-04-29T05:22:18;9.50;99.90
16321;DHT22;8269;50.990;4.494;2023-04-29T05:24:44;9.50;99.90
16321;DHT22;8269;50.990;4.494;2023-04-29T05:27:09;9.50;99.90
16321;DHT22;8269;50.990;4.494;2023-04-29T05:29:35;9.50;99.90
16321;DHT22;8269;50.990;4.494;2023-04-29T05:32:01;9.50;99.90
16321;DHT22;8269;50.990;4.494;2023-04-29T05:34:26;9.50;99.90
16321;DHT22;8269;50.990;4.494;2023-04-29T05:36:52;9.50;99.90
16321;DHT22;8269;50.990;4.494;2023-04-29T05:39:18;9.50;99.90
16321;DHT22;8269;50.990;4.494;2023-04-29T05:41:43;9.50;99.90
16321;DHT22;8269;50.990;4.494;2023-04-29T05:44:09;9.40;99.90
16321;DHT22;8269;50.990;4.494;2023-04-29T05:46:35;9.50;99.90
16321;DHT22;8269;50.990;4.494;2023-04-29T05:49:01;9.50;99.90
16321;DHT22;8269;50.990;4.494;2023-04-29T05:51:26;9.50;99.90
16321;DHT22;8269;50.990;4.494;2023-04-29T05:53:53;9.50;99.90
16321;DHT22;8269;50.990;4.494;2023-04-29T05:56:19;9.50;99.90
16321;DHT22;8269;50.990;4.494;2023-04-29T05:58:45;9.60;99.90
16321;DHT22;8269;50.990;4.494;2023-04-29T06:01:10;9.60;99.90
16321;DHT22;8269;50.990;4.494;2023-04-29T06:03:37;9.60;99.90
16321;DHT22;8269;50.990;4.494;2023-04-29T06:06:03;9.60;99.90
16321;DHT22;8269;50.990;4.494;2023-04-29T06:08:29;9.60;99.90
16321;DHT22;8269;50.990;4.494;2023-04-29T06:10:55;9.70;99.90
16321;DHT22;8269;50.990;4.494;2023-04-29T06:13:20;9.70;99.90
16321;DHT22;8269;50.990;4.494;2023-04-29T06:15:46;9.60;99.90
16321;DHT22;8269;50.990;4.494;2023-04-29T06:18:12;9.70;99.90
16321;DHT22;8269;50.990;4.494;2023-04-29T06:20:37;9.70;99.90
16321;DHT22;8269;50.990;4.494;2023-04-29T06:23:03;9.80;99.90
16321;DHT22;8269;50.990;4.494;2023-04-29T06:25:29;9.70;99.90
16321;DHT22;8269;50.990;4.494;2023-04-29T06:27:56;9.80;99.90
16321;DHT22;8269;50.990;4.494;2023-04-29T06:30:22;9.80;99.90
16321;DHT22;8269;50.990;4.494;2023-04-29T06:32:48;9.80;99.90
16321;DHT22;8269;50.990;4.494;2023-04-29T06:35:14;9.70;99.90
16321;DHT22;8269;50.990;4.494;2023-04-29T06:37:39;9.70;99.90
16321;DHT22;8269;50.990;4.494;2023-04-29T06:40:06;9.70;99.90
16321;DHT22;8269;50.990;4.494;2023-04-29T06:42:32;9.60;99.90
16321;DHT22;8269;50.990;4.494;2023-04-29T06:44:58;9.60;99.90
16321;DHT22;8269;50.990;4.494;2023-04-29T06:47:23;9.60;99.90
16321;DHT22;8269;50.990;4.494;2023-04-29T06:49:49;9.60;99.90
16321;DHT22;8269;50.990;4.494;2023-04-29T06:52:15;9.60;99.90
16321;DHT22;8269;50.990;4.494;2023-04-29T06:54:40;9.70;99.90
16321;DHT22;8269;50.990;4.494;2023-04-29T06:57:06;9.70;99.90
16321;DHT22;8269;50.990;4.494;2023-04-29T06:59:32;9.70;99.90
16321;DHT22;8269;50.990;4.494;2023-04-29T07:01:57;9.70;99.90
16321;DHT22;8269;50.990;4.494;2023-04-29T07:04:23;9.80;99.90
16321;DHT22;8269;50.990;4.494;2023-04-29T07:06:49;9.80;99.90
16321;DHT22;8269;50.990;4.494;2023-04-29T07:09:15;9.80;99.90
16321;DHT22;8269;50.990;4.494;2023-04-29T07:11:41;9.90;99.90
16321;DHT22;8269;50.990;4.494;2023-04-29T07:14:07;9.90;99.90
16321;DHT22;8269;50.990;4.494;2023-04-29T07:16:33;9.90;99.90
16321;DHT22;8269;50.990;4.494;2023-04-29T07:18:59;10.00;99.90
16321;DHT22;8269;50.990;4.494;2023-04-29T07:21:25;10.00;99.90
16321;DHT22;8269;50.990;4.494;2023-04-29T07:23:51;10.00;99.90
16321;DHT22;8269;50.990;4.494;2023-04-29T07:26:17;10.10;99.90
16321;DHT22;8269;50.990;4.494;2023-04-29T07:28:43;10.10;99.90
16321;DHT22;8269;50.990;4.494;2023-04-29T07:31:09;10.10;99.90
16321;DHT22;8269;50.990;4.494;2023-04-29T07:33:36;10.20;99.90
16321;DHT22;8269;50.990;4.494;2023-04-29T07:36:04;10.20;99.90
16321;DHT22;8269;50.990;4.494;2023-04-29T07:38:31;10.20;99.90
16321;DHT22;8269;50.990;4.494;2023-04-29T07:40:57;10.30;99.90
16321;DHT22;8269;50.990;4.494;2023-04-29T07:43:23;10.40;99.90
16321;DHT22;8269;50.990;4.494;2023-04-29T07:45:48;10.50;99.90
16321;DHT22;8269;50.990;4.494;2023-04-29T07:48:14;10.60;99.90
16321;DHT22;8269;50.990;4.494;2023-04-29T07:50:40;10.70;99.90
16321;DHT22;8269;50.990;4.494;2023-04-29T07:53:05;10.70;99.90
16321;DHT22;8269;50.990;4.494;2023-04-29T07:55:31;10.70;99.90
16321;DHT22;8269;50.990;4.494;2023-04-29T07:57:57;10.80;99.90
16321;DHT22;8269;50.990;4.494;2023-04-29T08:00:23;10.80;99.90
16321;DHT22;8269;50.990;4.494;2023-04-29T08:02:53;10.90;99.90
16321;DHT22;8269;50.990;4.494;2023-04-29T08:05:19;11.00;99.90
16321;DHT22;8269;50.990;4.494;2023-04-29T08:07:48;11.00;99.90
16321;DHT22;8269;50.990;4.494;2023-04-29T08:10:18;11.10;99.90
16321;DHT22;8269;50.990;4.494;2023-04-29T08:12:47;11.20;99.90
16321;DHT22;8269;50.990;4.494;2023-04-29T08:15:13;11.20;99.90
16321;DHT22;8269;50.990;4.494;2023-04-29T08:17:39;11.10;99.90
16321;DHT22;8269;50.990;4.494;2023-04-29T08:20:06;11.00;99.90
16321;DHT22;8269;50.990;4.494;2023-04-29T08:22:33;11.00;99.90
16321;DHT22;8269;50.990;4.494;2023-04-29T08:24:58;11.10;99.90
16321;DHT22;8269;50.990;4.494;2023-04-29T08:27:24;11.20;99.90
16321;DHT22;8269;50.990;4.494;2023-04-29T08:29:50;11.20;99.90
16321;DHT22;8269;50.990;4.494;2023-04-29T08:32:16;11.30;99.90
16321;DHT22;8269;50.990;4.494;2023-04-29T08:34:41;11.10;99.90
16321;DHT22;8269;50.990;4.494;2023-04-29T08:37:09;11.00;99.90
16321;DHT22;8269;50.990;4.494;2023-04-29T08:39:35;11.00;99.90
16321;DHT22;8269;50.990;4.494;2023-04-29T08:42:07;11.00;99.90
16321;DHT22;8269;50.990;4.494;2023-04-29T08:44:33;11.20;99.90
16321;DHT22;8269;50.990;4.494;2023-04-29T08:47:00;11.30;99.90
16321;DHT22;8269;50.990;4.494;2023-04-29T08:49:27;11.40;99.90
16321;DHT22;8269;50.990;4.494;2023-04-29T08:51:53;11.30;99.90
16321;DHT22;8269;50.990;4.494;2023-04-29T08:54:19;11.20;99.90
16321;DHT22;8269;50.990;4.494;2023-04-29T08:56:45;11.30;99.90
16321;DHT22;8269;50.990;4.494;2023-04-29T08:59:14;11.50;99.90
16321;DHT22;8269;50.990;4.494;2023-04-29T09:01:42;11.60;99.90
16321;DHT22;8269;50.990;4.494;2023-04-29T09:06:57;11.70;99.90
16321;DHT22;8269;50.990;4.494;2023-04-29T09:09:24;11.70;99.90
16321;DHT22;8269;50.990;4.494;2023-04-29T09:11:49;11.60;99.90
16321;DHT22;8269;50.990;4.494;2023-04-29T09:14:15;11.60;99.90
16321;DHT22;8269;50.990;4.494;2023-04-29T09:16:41;11.60;99.90
16321;DHT22;8269;50.990;4.494;2023-04-29T09:19:06;11.80;99.90
16321;DHT22;8269;50.990;4.494;2023-04-29T09:21:32;11.80;99.90
16321;DHT22;8269;50.990;4.494;2023-04-29T09:24:02;12.00;99.90
16321;DHT22;8269;50.990;4.494;2023-04-29T09:26:41;12.10;99.90
16321;DHT22;8269;50.990;4.494;2023-04-29T09:29:11;12.30;99.90
16321;DHT22;8269;50.990;4.494;2023-04-29T09:31:38;12.70;99.90
16321;DHT22;8269;50.990;4.494;2023-04-29T09:34:04;12.80;99.90
16321;DHT22;8269;50.990;4.494;2023-04-29T09:36:49;13.00;99.90
16321;DHT22;8269;50.990;4.494;2023-04-29T09:41:55;13.50;99.90
16321;DHT22;8269;50.990;4.494;2023-04-29T09:46:56;14.00;99.90
16321;DHT22;8269;50.990;4.494;2023-04-29T09:49:27;14.30;99.90
16321;DHT22;8269;50.990;4.494;2023-04-29T09:51:54;14.50;99.90
16321;DHT22;8269;50.990;4.494;2023-04-29T09:54:25;14.70;99.90
16321;DHT22;8269;50.990;4.494;2023-04-29T09:56:53;14.80;99.90
16321;DHT22;8269;50.990;4.494;2023-04-29T09:59:19;14.80;99.90
16321;DHT22;8269;50.990;4.494;2023-04-29T10:01:53;14.90;99.90
16321;DHT22;8269;50.990;4.494;2023-04-29T10:04:21;14.90;99.90
16321;DHT22;8269;50.990;4.494;2023-04-29T10:06:52;14.90;99.90
16321;DHT22;8269;50.990;4.494;2023-04-29T10:09:19;14.80;99.90
16321;DHT22;8269;50.990;4.494;2023-04-29T10:11:46;14.60;99.90
16321;DHT22;8269;50.990;4.494;2023-04-29T10:14:17;14.40;99.90
16321;DHT22;8269;50.990;4.494;2023-04-29T10:16:49;14.20;99.90
16321;DHT22;8269;50.990;4.494;2023-04-29T10:19:32;14.10;99.90
16321;DHT22;8269;50.990;4.494;2023-04-29T10:22:18;14.10;99.90
16321;DHT22;8269;50.990;4.494;2023-04-29T10:24:47;14.00;99.90
16321;DHT22;8269;50.990;4.494;2023-04-29T10:27:14;14.00;99.90
16321;DHT22;8269;50.990;4.494;2023-04-29T10:29:42;13.90;99.90
16321;DHT22;8269;50.990;4.494;2023-04-29T10:32:09;13.90;99.90
16321;DHT22;8269;50.990;4.494;2023-04-29T10:34:37;13.80;99.90
16321;DHT22;8269;50.990;4.494;2023-04-29T10:37:09;13.70;99.90
16321;DHT22;8269;50.990;4.494;2023-04-29T10:42:45;13.50;99.90
16321;DHT22;8269;50.990;4.494;2023-04-29T10:45:27;13.60;99.90
16321;DHT22;8269;50.990;4.494;2023-04-29T10:50:34;13.80;99.90
16321;DHT22;8269;50.990;4.494;2023-04-29T10:53:04;14.00;99.90
16321;DHT22;8269;50.990;4.494;2023-04-29T10:55:34;14.40;99.90
16321;DHT22;8269;50.990;4.494;2023-04-29T10:58:01;14.60;99.90
16321;DHT22;8269;50.990;4.494;2023-04-29T11:00:29;14.80;99.90
16321;DHT22;8269;50.990;4.494;2023-04-29T11:02:55;14.70;99.90
16321;DHT22;8269;50.990;4.494;2023-04-29T11:05:34;14.60;99.90
16321;DHT22;8269;50.990;4.494;2023-04-29T11:08:27;14.30;99.90
16321;DHT22;8269;50.990;4.494;2023-04-29T11:10:56;14.20;99.90
16321;DHT22;8269;50.990;4.494;2023-04-29T11:13:28;14.20;99.90
16321;DHT22;8269;50.990;4.494;2023-04-29T11:16:05;14.20;99.90
16321;DHT22;8269;50.990;4.494;2023-04-29T11:18:31;14.30;99.90
16321;DHT22;8269;50.990;4.494;2023-04-29T11:23:34;14.30;99.90
16321;DHT22;8269;50.990;4.494;2023-04-29T11:26:01;14.30;99.90
16321;DHT22;8269;50.990;4.494;2023-04-29T11:28:28;14.20;99.90
16321;DHT22;8269;50.990;4.494;2023-04-29T11:30:56;14.20;99.90
16321;DHT22;8269;50.990;4.494;2023-04-29T11:33:22;14.10;99.90
16321;DHT22;8269;50.990;4.494;2023-04-29T11:35:48;14.20;99.90
16321;DHT22;8269;50.990;4.494;2023-04-29T11:38:14;14.20;99.90
16321;DHT22;8269;50.990;4.494;2023-04-29T11:40:49;14.30;99.90
16321;DHT22;8269;50.990;4.494;2023-04-29T11:43:18;14.50;99.90
16321;DHT22;8269;50.990;4.494;2023-04-29T11:45:47;14.80;99.90
16321;DHT22;8269;50.990;4.494;2023-04-29T11:48:20;15.10;99.90
16321;DHT22;8269;50.990;4.494;2023-04-29T11:50:46;15.40;99.90
16321;DHT22;8269;50.990;4.494;2023-04-29T11:53:13;15.60;99.90
16321;DHT22;8269;50.990;4.494;2023-04-29T11:55:42;15.50;99.90
16321;DHT22;8269;50.990;4.494;2023-04-29T11:58:09;15.30;99.90
16321;DHT22;8269;50.990;4.494;2023-04-29T12:00:35;15.20;99.90
16321;DHT22;8269;50.990;4.494;2023-04-29T12:03:05;15.20;99.90
16321;DHT22;8269;50.990;4.494;2023-04-29T12:05:31;15.20;99.90
16321;DHT22;8269;50.990;4.494;2023-04-29T12:07:57;15.10;99.90
16321;DHT22;8269;50.990;4.494;2023-04-29T12:10:23;15.10;99.90
16321;DHT22;8269;50.990;4.494;2023-04-29T12:12:48;15.10;99.90
16321;DHT22;8269;50.990;4.494;2023-04-29T12:15:14;15.20;99.90
16321;DHT22;8269;50.990;4.494;2023-04-29T12:17:41;15.20;99.90
16321;DHT22;8269;50.990;4.494;2023-04-29T12:20:08;15.30;99.90
16321;DHT22;8269;50.990;4.494;2023-04-29T12:22:35;15.60;99.90
16321;DHT22;8269;50.990;4.494;2023-04-29T12:25:03;15.80;99.90
16321;DHT22;8269;50.990;4.494;2023-04-29T12:27:30;15.70;99.90
16321;DHT22;8269;50.990;4.494;2023-04-29T12:29:56;15.60;99.90
16321;DHT22;8269;50.990;4.494;2023-04-29T12:32:24;15.50;99.90
16321;DHT22;8269;50.990;4.494;2023-04-29T12:34:50;15.80;99.90
16321;DHT22;8269;50.990;4.494;2023-04-29T12:37:21;16.10;99.90
16321;DHT22;8269;50.990;4.494;2023-04-29T12:39:49;16.20;99.90
16321;DHT22;8269;50.990;4.494;2023-04-29T12:42:15;16.00;99.90
16321;DHT22;8269;50.990;4.494;2023-04-29T12:44:44;15.90;99.90
16321;DHT22;8269;50.990;4.494;2023-04-29T12:47:11;15.90;99.90
16321;DHT22;8269;50.990;4.494;2023-04-29T12:49:44;15.80;99.90
16321;DHT22;8269;50.990;4.494;2023-04-29T12:52:10;15.80;99.90
16321;DHT22;8269;50.990;4.494;2023-04-29T12:54:37;15.60;99.90
16321;DHT22;8269;50.990;4.494;2023-04-29T12:57:06;15.50;99.90
16321;DHT22;8269;50.990;4.494;2023-04-29T12:59:32;15.50;99.90
16321;DHT22;8269;50.990;4.494;2023-04-29T13:01:58;15.50;99.90
16321;DHT22;8269;50.990;4.494;2023-04-29T13:04:23;15.70;99.90
16321;DHT22;8269;50.990;4.494;2023-04-29T13:06:49;15.80;99.90
16321;DHT22;8269;50.990;4.494;2023-04-29T13:09:18;16.00;99.90
16321;DHT22;8269;50.990;4.494;2023-04-29T13:11:44;16.00;99.90
16321;DHT22;8269;50.990;4.494;2023-04-29T13:14:10;16.10;99.90
16321;DHT22;8269;50.990;4.494;2023-04-29T13:16:36;16.20;99.90
16321;DHT22;8269;50.990;4.494;2023-04-29T13:19:02;16.30;99.90
16321;DHT22;8269;50.990;4.494;2023-04-29T13:21:27;16.40;99.90
16321;DHT22;8269;50.990;4.494;2023-04-29T13:23:53;16.30;99.90
16321;DHT22;8269;50.990;4.494;2023-04-29T13:26:19;16.40;99.90
16321;DHT22;8269;50.990;4.494;2023-04-29T13:28:45;16.30;99.90
16321;DHT22;8269;50.990;4.494;2023-04-29T13:31:12;16.30;99.90
16321;DHT22;8269;50.990;4.494;2023-04-29T13:33:38;16.30;99.90
16321;DHT22;8269;50.990;4.494;2023-04-29T13:36:03;16.40;99.90
16321;DHT22;8269;50.990;4.494;2023-04-29T13:38:30;16.50;99.90
16321;DHT22;8269;50.990;4.494;2023-04-29T13:40:56;16.60;99.90
16321;DHT22;8269;50.990;4.494;2023-04-29T13:43:22;16.80;99.90
16321;DHT22;8269;50.990;4.494;2023-04-29T13:45:47;16.60;99.90
16321;DHT22;8269;50.990;4.494;2023-04-29T13:48:13;16.60;99.90
16321;DHT22;8269;50.990;4.494;2023-04-29T13:50:39;16.40;99.90
16321;DHT22;8269;50.990;4.494;2023-04-29T13:53:06;16.40;99.90
16321;DHT22;8269;50.990;4.494;2023-04-29T13:55:32;16.30;99.90
16321;DHT22;8269;50.990;4.494;2023-04-29T13:58:00;16.30;99.90
16321;DHT22;8269;50.990;4.494;2023-04-29T14:00:26;16.30;99.90
16321;DHT22;8269;50.990;4.494;2023-04-29T14:02:51;16.20;99.70
16321;DHT22;8269;50.990;4.494;2023-04-29T14:05:17;16.20;99.60
16321;DHT22;8269;50.990;4.494;2023-04-29T14:07:43;16.40;99.80
16321;DHT22;8269;50.990;4.494;2023-04-29T14:10:08;16.50;99.90
16321;DHT22;8269;50.990;4.494;2023-04-29T14:12:34;16.70;99.90
16321;DHT22;8269;50.990;4.494;2023-04-29T14:15:00;16.80;98.80
16321;DHT22;8269;50.990;4.494;2023-04-29T14:17:26;16.80;98.30
16321;DHT22;8269;50.990;4.494;2023-04-29T14:19:52;16.80;97.40
16321;DHT22;8269;50.990;4.494;2023-04-29T14:22:17;16.90;96.50
16321;DHT22;8269;50.990;4.494;2023-04-29T14:24:43;16.70;96.10
16321;DHT22;8269;50.990;4.494;2023-04-29T14:27:08;16.80;97.10
16321;DHT22;8269;50.990;4.494;2023-04-29T14:29:34;16.80;97.10
16321;DHT22;8269;50.990;4.494;2023-04-29T14:32:00;16.80;95.90
16321;DHT22;8269;50.990;4.494;2023-04-29T14:34:26;16.50;95.40
16321;DHT22;8269;50.990;4.494;2023-04-29T14:36:51;16.50;96.40
16321;DHT22;8269;50.990;4.494;2023-04-29T14:39:17;16.60;95.40
16321;DHT22;8269;50.990;4.494;2023-04-29T14:41:42;16.40;96.30
16321;DHT22;8269;50.990;4.494;2023-04-29T14:44:08;16.40;96.40
16321;DHT22;8269;50.990;4.494;2023-04-29T14:46:34;16.50;96.80
16321;DHT22;8269;50.990;4.494;2023-04-29T14:49:00;16.50;96.00
16321;DHT22;8269;50.990;4.494;2023-04-29T14:51:26;16.60;95.10
16321;DHT22;8269;50.990;4.494;2023-04-29T14:53:52;16.60;95.90
16321;DHT22;8269;50.990;4.494;2023-04-29T14:56:18;16.60;95.40
16321;DHT22;8269;50.990;4.494;2023-04-29T14:58:43;16.40;95.00
16321;DHT22;8269;50.990;4.494;2023-04-29T15:01:09;16.30;95.90
16321;DHT22;8269;50.990;4.494;2023-04-29T15:03:35;16.20;95.00
16321;DHT22;8269;50.990;4.494;2023-04-29T15:06:01;16.20;95.70
16321;DHT22;8269;50.990;4.494;2023-04-29T15:08:28;16.20;95.50
16321;DHT22;8269;50.990;4.494;2023-04-29T15:10:54;16.20;95.90
16321;DHT22;8269;50.990;4.494;2023-04-29T15:13:20;16.30;95.90
16321;DHT22;8269;50.990;4.494;2023-04-29T15:15:47;16.30;96.40
16321;DHT22;8269;50.990;4.494;2023-04-29T15:18:13;16.30;96.00
16321;DHT22;8269;50.990;4.494;2023-04-29T15:20:39;16.40;96.30
16321;DHT22;8269;50.990;4.494;2023-04-29T15:23:05;16.40;96.90
16321;DHT22;8269;50.990;4.494;2023-04-29T15:25:31;16.40;96.50
16321;DHT22;8269;50.990;4.494;2023-04-29T15:28:00;16.30;96.80
16321;DHT22;8269;50.990;4.494;2023-04-29T15:30:26;16.30;96.40
16321;DHT22;8269;50.990;4.494;2023-04-29T15:32:55;16.20;96.50
16321;DHT22;8269;50.990;4.494;2023-04-29T15:35:21;16.30;96.50
16321;DHT22;8269;50.990;4.494;2023-04-29T15:37:47;16.30;96.70
16321;DHT22;8269;50.990;4.494;2023-04-29T15:40:13;16.40;96.40
16321;DHT22;8269;50.990;4.494;2023-04-29T15:42:38;16.40;96.60
16321;DHT22;8269;50.990;4.494;2023-04-29T15:45:04;16.40;96.30
16321;DHT22;8269;50.990;4.494;2023-04-29T15:47:33;16.30;96.70
16321;DHT22;8269;50.990;4.494;2023-04-29T15:49:59;16.50;96.00
16321;DHT22;8269;50.990;4.494;2023-04-29T15:52:24;16.50;96.00
16321;DHT22;8269;50.990;4.494;2023-04-29T15:54:50;16.30;95.30
16321;DHT22;8269;50.990;4.494;2023-04-29T15:57:16;16.10;95.90
16321;DHT22;8269;50.990;4.494;2023-04-29T15:59:42;16.00;96.50
16321;DHT22;8269;50.990;4.494;2023-04-29T16:02:07;16.10;96.90
16321;DHT22;8269;50.990;4.494;2023-04-29T16:04:36;16.20;97.30
16321;DHT22;8269;50.990;4.494;2023-04-29T16:07:02;16.30;97.10
16321;DHT22;8269;50.990;4.494;2023-04-29T16:09:33;16.30;97.20
16321;DHT22;8269;50.990;4.494;2023-04-29T16:12:00;16.20;96.90
16321;DHT22;8269;50.990;4.494;2023-04-29T16:14:26;16.00;96.40